EW3370 Weather Reports


Display with metric or nautical units.
time (UTC)temp
F
wind
direction
speed
MPH
gust
MPH
rain 1hr
in
rain 24hr
in
rain mn
in
humidity
%
barometer
mb
20260503211529 71 252 3.0 11.0 0.00 0.02 0.02 59 1013.3
20260503211053 71 261 5.0 11.0 0.00 0.02 0.02 59 1013.3
20260503210540 71 239 2.0 10.0 0.00 0.02 0.02 60 1013.4
20260503210019 70 333 5.0 10.0 0.00 0.02 0.02 60 1013.4
20260503205526 70 290 4.0 8.0 0.00 0.02 0.02 61 1013.4
20260503205033 71 287 4.0 8.0 0.00 0.02 0.02 60 1013.5
20260503204539 70 323 5.0 9.0 0.00 0.02 0.02 61 1013.5
20260503204023 70 325 5.0 10.0 0.00 0.02 0.02 61 1013.5
20260503203526 70 264 5.0 10.0 0.00 0.02 0.02 61 1013.7
20260503203028 70 290 5.0 10.0 0.00 0.02 0.02 64 1013.7
20260503202531 69 327 5.0 10.0 0.00 0.02 0.02 63 1013.8
20260503202038 70 292 3.0 11.0 0.00 0.02 0.02 64 1013.7
20260503201523 69 317 5.0 11.0 0.00 0.02 0.02 64 1013.8
20260503201022 69 307 5.0 10.0 0.00 0.02 0.02 65 1013.8
20260503200522 68 269 5.0 10.0 0.00 0.02 0.02 65 1013.8
20260503200029 68 313 6.0 10.0 0.00 0.02 0.02 64 1013.9
20260503195554 68 278 5.0 10.0 0.00 0.02 0.02 64 1013.9
20260503195100 69 293 5.0 10.0 0.00 0.02 0.02 65 1013.9
20260503194519 69 342 5.0 10.0 0.00 0.02 0.02 64 1013.9
20260503194021 69 226 5.0 10.0 0.00 0.02 0.02 64 1014.0
20260503193524 69 270 4.0 11.0 0.00 0.02 0.02 64 1014.0
20260503193027 69 326 4.0 11.0 0.00 0.02 0.02 65 1014.0
20260503192537 69 277 5.0 11.0 0.00 0.02 0.02 64 1014.0
20260503192040 69 311 5.0 11.0 0.00 0.02 0.02 64 1014.1
20260503191525 69 339 6.0 11.0 0.00 0.02 0.02 64 1014.0
20260503191028 69 293 4.0 11.0 0.00 0.02 0.02 64 1014.0
20260503190530 68 349 5.0 8.0 0.00 0.02 0.02 65 1014.0
20260503190036 68 321 4.0 10.0 0.00 0.02 0.02 66 1014.1
20260503185600 68 341 6.0 10.0 0.00 0.02 0.02 66 1014.1
20260503185023 68 326 4.0 11.0 0.00 0.02 0.02 66 1014.2
20260503184531 68 300 5.0 11.0 0.00 0.02 0.02 68 1014.2
20260503184027 68 322 5.0 11.0 0.00 0.02 0.02 67 1014.1
20260503183534 68 310 4.0 11.0 0.00 0.02 0.02 68 1014.1
20260503183040 68 19 6.0 11.0 0.00 0.02 0.02 68 1014.2
20260503182545 68 331 4.0 9.0 0.00 0.02 0.02 68 1014.1
20260503182026 68 324 3.0 10.0 0.00 0.02 0.02 68 1014.2
20260503181534 68 336 5.0 10.0 0.00 0.02 0.02 67 1014.2
20260503181018 68 345 3.0 7.0 0.00 0.02 0.02 69 1014.2
20260503180524 67 311 3.0 8.0 0.00 0.02 0.02 70 1014.2
20260503180030 67 312 3.0 8.0 0.00 0.02 0.02 69 1014.2
20260503175537 67 315 3.0 7.0 0.00 0.02 0.02 70 1014.1
20260503175017 66 307 2.0 9.0 0.00 0.02 0.02 72 1014.2
20260503174521 66 328 5.0 9.0 0.00 0.02 0.02 72 1014.2
20260503174024 66 271 4.0 9.0 0.00 0.02 0.02 74 1014.2
20260503173527 66 328 4.0 9.0 0.00 0.02 0.02 74 1014.1
20260503173022 66 281 4.0 9.0 0.00 0.02 0.02 74 1014.1
20260503172526 66 284 3.0 9.0 0.00 0.02 0.02 75 1014.2
20260503172031 66 313 4.0 9.0 0.00 0.02 0.02 76 1014.1
20260503171534 66 326 3.0 8.0 0.00 0.02 0.02 75 1014.1
20260503171038 66 272 4.0 8.0 0.00 0.02 0.02 76 1014.1
20260503170522 66 325 4.0 8.0 0.00 0.02 0.02 76 1014.0
20260503150527 61 317 0.0 1.0 0.00 0.01 0.01 91 1013.9
20260503131023 61 287 1.0 4.0 0.00 0.00 0.00 90 1012.8
20260503130549 61 319 1.0 4.0 0.00 0.00 0.00 90 1012.7
20260503110521 61 269 4.0 7.0 0.00 0.00 0.00 87 1012.0
20260503081544 62 224 0.0 2.0 0.00 0.00 0.00 85 1012.8
20260503081052 62 224 0.0 1.0 0.00 0.00 0.00 85 1012.8
20260503080533 62 224 0.0 0.0 0.00 0.00 0.00 85 1012.9
20260503072524 62 224 0.0 2.0 0.00 0.00 0.00 85 1013.2
20260503072049 62 224 0.0 2.0 0.00 0.00 0.00 85 1013.2
20260503071526 62 224 0.0 2.0 0.00 0.00 0.00 85 1013.2
20260503071029 62 224 0.0 1.0 0.00 0.00 0.00 85 1013.1
20260503070531 62 224 0.0 1.0 0.00 0.00 0.00 85 1013.1
20260503055034 63 223 1.0 2.0 0.00 0.00 0.00 85 1012.8
20260503054518 63 223 1.0 4.0 0.00 0.00 0.00 85 1012.8
20260503054022 63 223 1.0 4.0 0.00 0.00 0.00 85 1012.9
20260503053642 63 259 1.0 4.0 0.00 0.00 0.00 85 1012.8
20260503053047 63 270 2.0 5.0 0.00 0.00 0.00 86 1012.9
20260503052528 63 257 2.0 5.0 0.00 0.00 0.00 86 1012.8
20260503052037 63 266 1.0 4.0 0.00 0.00 0.00 86 1012.7
20260503051518 62 269 2.0 4.0 0.00 0.00 0.00 86 1012.5
20260503051025 62 284 1.0 3.0 0.00 0.00 0.00 86 1012.4
20260503050535 62 284 0.0 3.0 0.00 0.00 0.00 86 1012.4
20260503050032 62 284 1.0 3.0 0.00 0.00 0.00 86 1012.5
20260503045540 62 313 1.0 2.0 0.00 0.00 0.00 86 1012.3
20260503045024 62 313 0.0 2.0 0.00 0.00 0.00 86 1012.2
20260503044553 62 313 0.0 3.0 0.00 0.00 0.00 86 1012.2
20260503044038 62 313 1.0 4.0 0.00 0.00 0.00 86 1012.2
20260503043525 62 317 1.0 5.0 0.00 0.00 0.00 86 1012.1
20260503043025 62 22 2.0 5.0 0.00 0.00 0.00 86 1012.0
20260503042527 62 5 1.0 4.0 0.00 0.00 0.00 86 1011.9
20260503042056 63 5 1.0 4.0 0.00 0.00 0.00 86 1011.7
20260503041538 62 5 1.0 4.0 0.00 0.00 0.00 86 1011.7
20260503041020 63 5 1.0 3.0 0.00 0.00 0.00 86 1011.5
20260503040548 63 5 2.0 3.0 0.00 0.00 0.00 86 1011.4
20260503040037 63 360 1.0 4.0 0.00 0.00 0.00 86 1011.3
20260503035544 63 324 1.0 4.0 0.00 0.00 0.00 86 1011.3
20260503035027 63 327 1.0 3.0 0.00 0.00 0.00 86 1011.2
20260503034552 63 325 1.0 3.0 0.00 0.00 0.00 86 1011.3
20260503034036 63 325 1.0 3.0 0.00 0.00 0.00 86 1011.4
20260503033601 63 293 0.0 5.0 0.00 0.00 0.00 86 1011.4
20260503033020 63 293 0.0 5.0 0.00 0.00 0.00 86 1011.4
20260503032522 63 263 2.0 4.0 0.00 0.00 0.00 86 1011.3
20260503032044 63 289 1.0 3.0 0.00 0.00 0.00 86 1011.3
20260503031522 63 320 1.0 2.0 0.00 0.00 0.00 86 1011.1
20260503031024 63 320 0.0 3.0 0.00 0.00 0.00 86 1011.0
20260503030527 63 320 0.0 4.0 0.00 0.00 0.00 85 1011.0
20260503030022 63 334 0.0 4.0 0.00 0.00 0.00 85 1011.0
20260503025520 63 334 0.0 2.0 0.00 0.00 0.00 85 1010.9
20260503025020 63 334 1.0 2.0 0.00 0.00 0.00 85 1010.8
20260503024526 63 334 0.0 1.0 0.00 0.00 0.00 85 1010.9
20260503024049 63 334 0.0 2.0 0.00 0.00 0.00 85 1010.8
20260503023532 63 334 0.0 2.0 0.00 0.00 0.00 85 1010.8
20260503023030 63 338 0.0 2.0 0.00 0.00 0.00 85 1010.8
20260503022536 63 338 0.0 3.0 0.00 0.00 0.00 84 1010.8
20260503022017 63 338 1.0 5.0 0.00 0.00 0.00 84 1010.8
20260503021539 63 333 2.0 5.0 0.00 0.00 0.00 84 1010.7
20260503021023 63 262 1.0 3.0 0.00 0.00 0.00 83 1010.8
20260503020549 63 263 0.0 3.0 0.00 0.00 0.00 83 1010.8
20260503020028 63 263 0.0 5.0 0.00 0.00 0.00 83 1010.8
20260503015529 63 263 0.0 5.0 0.00 0.00 0.00 83 1010.7
20260503015031 64 263 2.0 5.0 0.00 0.00 0.00 83 1010.7
20260503014535 64 270 1.0 5.0 0.00 0.00 0.00 83 1010.7
20260503014019 64 302 1.0 7.0 0.00 0.00 0.00 82 1010.7
20260503013528 64 247 2.0 7.0 0.00 0.00 0.00 82 1010.8
20260503013028 64 264 2.0 7.0 0.00 0.00 0.00 82 1010.8
20260503012527 64 242 0.0 4.0 0.00 0.00 0.00 82 1010.6
20260503012049 64 245 1.0 4.0 0.00 0.00 0.00 82 1010.6
20260503011529 64 240 1.0 5.0 0.00 0.00 0.00 82 1010.5
20260503011036 64 240 1.0 6.0 0.00 0.00 0.00 81 1010.5
20260503010542 64 254 3.0 6.0 0.00 0.00 0.00 81 1010.5
20260503010021 65 238 2.0 5.0 0.00 0.00 0.00 81 1010.5
20260503005522 64 267 2.0 5.0 0.00 0.00 0.00 81 1010.6
20260503005022 65 244 3.0 6.0 0.00 0.00 0.00 81 1010.6
20260503004545 65 259 2.0 6.0 0.00 0.00 0.00 81 1010.6
20260503004026 65 261 2.0 6.0 0.00 0.00 0.00 81 1010.5
20260503003532 65 249 3.0 6.0 0.00 0.00 0.00 81 1010.6
20260503003025 65 275 2.0 8.0 0.00 0.00 0.00 81 1010.6
20260503002525 65 325 4.0 8.0 0.00 0.00 0.00 81 1010.6
20260503002025 65 297 3.0 8.0 0.00 0.00 0.00 81 1010.7
20260503001524 65 294 4.0 8.0 0.00 0.00 0.00 80 1010.8
20260503001022 65 333 4.0 7.0 0.00 0.00 0.00 80 1010.7
20260503000528 65 273 4.0 9.0 0.00 0.00 0.00 81 1010.8
20260503000034 66 298 4.0 9.0 0.00 0.00 0.00 81 1010.7
20260502235556 66 317 4.0 7.0 0.00 0.00 0.00 80 1010.7
20260502235038 66 288 3.0 7.0 0.00 0.00 0.00 80 1010.8
20260502234517 66 300 3.0 8.0 0.00 0.00 0.00 80 1010.7
20260502234017 66 260 4.0 8.0 0.00 0.00 0.00 80 1010.8
20260502233522 66 271 3.0 7.0 0.00 0.00 0.00 80 1010.7
20260502233026 66 269 4.0 11.0 0.00 0.00 0.00 80 1010.6
20260502232533 66 319 3.0 11.0 0.00 0.00 0.00 80 1010.7
20260502232035 67 313 4.0 11.0 0.00 0.00 0.00 79 1010.7
20260502231534 67 331 4.0 8.0 0.00 0.00 0.00 79 1010.7
20260502231038 67 312 4.0 9.0 0.00 0.00 0.00 79 1010.8
20260502230540 67 261 3.0 9.0 0.00 0.00 0.00 79 1010.8
20260502230021 67 272 3.0 8.0 0.00 0.00 0.00 79 1010.8
20260502225521 67 308 3.0 8.0 0.00 0.00 0.00 79 1010.9
20260502225024 67 273 5.0 8.0 0.00 0.00 0.00 79 1011.0
20260502224526 67 269 4.0 9.0 0.00 0.00 0.00 79 1011.1
20260502224023 67 298 5.0 12.0 0.00 0.00 0.00 79 1011.3
20260502223524 67 323 4.0 12.0 0.00 0.00 0.00 78 1011.4
20260502223034 68 339 4.0 8.0 0.00 0.00 0.00 78 1011.4
20260502222537 68 271 5.0 9.0 0.00 0.00 0.00 77 1011.5
20260502222040 68 276 5.0 10.0 0.00 0.00 0.00 77 1011.7
20260502221522 68 272 5.0 10.0 0.00 0.00 0.00 77 1011.8
20260502221027 68 299 5.0 10.0 0.00 0.00 0.00 77 1011.8
20260502220528 68 321 5.0 10.0 0.00 0.00 0.00 78 1011.9
20260502220034 68 268 5.0 11.0 0.00 0.00 0.00 77 1011.8
20260502215535 68 252 5.0 11.0 0.00 0.00 0.00 78 1011.9
20260502215037 68 310 5.0 10.0 0.00 0.00 0.00 77 1011.9
20260502214545 69 333 5.0 10.0 0.00 0.00 0.00 77 1011.9
20260502214030 69 292 5.0 9.0 0.00 0.00 0.00 76 1012.0
20260502213551 69 290 5.0 9.0 0.00 0.00 0.00 76 1012.0
20260502213030 69 260 5.0 11.0 0.00 0.00 0.00 76 1012.2
20260502212536 69 312 5.0 11.0 0.00 0.00 0.00 75 1012.3
20260502212019 70 333 6.0 11.0 0.00 0.00 0.00 76 1012.3